sensor_id;sensor_type;location;lat;lon;timestamp;P1;durP1;ratioP1;P2;durP2;ratioP2
68647;SDS011;55632;51.962;16.116;2022-07-03T00:02:06;6.78;;;3.88;;
68647;SDS011;55632;51.962;16.116;2022-07-03T00:07:07;10.73;;;4.20;;
68647;SDS011;55632;51.962;16.116;2022-07-03T00:12:08;6.43;;;4.32;;
68647;SDS011;55632;51.962;16.116;2022-07-03T00:17:09;6.35;;;5.00;;
68647;SDS011;55632;51.962;16.116;2022-07-03T00:22:13;8.68;;;4.82;;
68647;SDS011;55632;51.962;16.116;2022-07-03T00:27:15;8.85;;;4.85;;
68647;SDS011;55632;51.962;16.116;2022-07-03T00:32:21;7.00;;;4.60;;
68647;SDS011;55632;51.962;16.116;2022-07-03T00:37:26;11.30;;;5.03;;
68647;SDS011;55632;51.962;16.116;2022-07-03T00:42:26;11.75;;;5.40;;
68647;SDS011;55632;51.962;16.116;2022-07-03T00:47:29;9.85;;;4.50;;
68647;SDS011;55632;51.962;16.116;2022-07-03T00:52:34;8.80;;;4.93;;
68647;SDS011;55632;51.962;16.116;2022-07-03T00:57:41;6.53;;;4.72;;
68647;SDS011;55632;51.962;16.116;2022-07-03T01:02:53;8.77;;;4.72;;
68647;SDS011;55632;51.962;16.116;2022-07-03T01:08:04;6.07;;;4.90;;
68647;SDS011;55632;51.962;16.116;2022-07-03T01:18:59;3.85;;;3.42;;
68647;SDS011;55632;51.962;16.116;2022-07-03T01:29:47;7.70;;;4.15;;
68647;SDS011;55632;51.962;16.116;2022-07-03T01:35:16;6.10;;;4.10;;
68647;SDS011;55632;51.962;16.116;2022-07-03T01:40:21;6.20;;;4.35;;
68647;SDS011;55632;51.962;16.116;2022-07-03T01:45:24;10.57;;;5.13;;
68647;SDS011;55632;51.962;16.116;2022-07-03T01:50:29;6.47;;;4.05;;
68647;SDS011;55632;51.962;16.116;2022-07-03T01:55:33;8.52;;;5.10;;
68647;SDS011;55632;51.962;16.116;2022-07-03T02:00:45;5.18;;;3.63;;
68647;SDS011;55632;51.962;16.116;2022-07-03T02:05:50;8.70;;;4.85;;
68647;SDS011;55632;51.962;16.116;2022-07-03T02:16:18;5.80;;;3.65;;
68647;SDS011;55632;51.962;16.116;2022-07-03T02:21:21;8.25;;;4.50;;
68647;SDS011;55632;51.962;16.116;2022-07-03T02:26:28;4.95;;;3.55;;
68647;SDS011;55632;51.962;16.116;2022-07-03T02:31:37;3.25;;;2.95;;
68647;SDS011;55632;51.962;16.116;2022-07-03T02:36:45;9.18;;;4.57;;
68647;SDS011;55632;51.962;16.116;2022-07-03T02:42:08;11.82;;;4.05;;
68647;SDS011;55632;51.962;16.116;2022-07-03T02:57:43;6.17;;;4.33;;
68647;SDS011;55632;51.962;16.116;2022-07-03T03:02:55;4.85;;;3.88;;
68647;SDS011;55632;51.962;16.116;2022-07-03T03:13:13;6.22;;;4.68;;
68647;SDS011;55632;51.962;16.116;2022-07-03T03:18:20;6.60;;;4.53;;
68647;SDS011;55632;51.962;16.116;2022-07-03T03:28:47;9.10;;;4.82;;
68647;SDS011;55632;51.962;16.116;2022-07-03T03:33:50;11.02;;;4.50;;
68647;SDS011;55632;51.962;16.116;2022-07-03T03:38:51;7.82;;;4.65;;
68647;SDS011;55632;51.962;16.116;2022-07-03T03:43:52;9.32;;;4.30;;
68647;SDS011;55632;51.962;16.116;2022-07-03T03:48:53;8.60;;;3.40;;
68647;SDS011;55632;51.962;16.116;2022-07-03T03:53:54;4.05;;;3.50;;
68647;SDS011;55632;51.962;16.116;2022-07-03T03:58:57;6.82;;;3.30;;
68647;SDS011;55632;51.962;16.116;2022-07-03T04:03:57;4.65;;;3.10;;
68647;SDS011;55632;51.962;16.116;2022-07-03T04:09:01;8.00;;;3.00;;
68647;SDS011;55632;51.962;16.116;2022-07-03T04:14:02;4.15;;;2.85;;
68647;SDS011;55632;51.962;16.116;2022-07-03T04:19:06;3.67;;;2.55;;
68647;SDS011;55632;51.962;16.116;2022-07-03T04:24:07;5.65;;;2.92;;
68647;SDS011;55632;51.962;16.116;2022-07-03T04:29:10;4.60;;;2.50;;
68647;SDS011;55632;51.962;16.116;2022-07-03T04:34:11;4.18;;;2.50;;
68647;SDS011;55632;51.962;16.116;2022-07-03T04:39:13;5.05;;;2.45;;
68647;SDS011;55632;51.962;16.116;2022-07-03T04:44:16;6.70;;;2.65;;
68647;SDS011;55632;51.962;16.116;2022-07-03T04:49:17;7.15;;;2.67;;
68647;SDS011;55632;51.962;16.116;2022-07-03T04:54:19;4.20;;;2.65;;
68647;SDS011;55632;51.962;16.116;2022-07-03T04:59:19;4.05;;;2.60;;
68647;SDS011;55632;51.962;16.116;2022-07-03T05:04:21;3.85;;;2.28;;
68647;SDS011;55632;51.962;16.116;2022-07-03T05:09:22;6.45;;;3.15;;
68647;SDS011;55632;51.962;16.116;2022-07-03T05:14:22;3.20;;;2.35;;
68647;SDS011;55632;51.962;16.116;2022-07-03T05:19:23;5.93;;;2.60;;
68647;SDS011;55632;51.962;16.116;2022-07-03T05:24:24;3.85;;;2.10;;
68647;SDS011;55632;51.962;16.116;2022-07-03T05:29:25;2.35;;;1.80;;
68647;SDS011;55632;51.962;16.116;2022-07-03T05:34:26;2.05;;;1.88;;
68647;SDS011;55632;51.962;16.116;2022-07-03T05:39:26;2.63;;;1.70;;
68647;SDS011;55632;51.962;16.116;2022-07-03T05:44:33;3.70;;;1.85;;
68647;SDS011;55632;51.962;16.116;2022-07-03T05:49:37;3.30;;;1.42;;
68647;SDS011;55632;51.962;16.116;2022-07-03T05:54:40;4.30;;;1.75;;
68647;SDS011;55632;51.962;16.116;2022-07-03T05:59:41;2.85;;;1.70;;
68647;SDS011;55632;51.962;16.116;2022-07-03T06:04:42;2.78;;;1.40;;
68647;SDS011;55632;51.962;16.116;2022-07-03T06:09:43;1.73;;;1.25;;
68647;SDS011;55632;51.962;16.116;2022-07-03T06:14:44;3.90;;;1.17;;
68647;SDS011;55632;51.962;16.116;2022-07-03T06:19:45;4.03;;;1.48;;
68647;SDS011;55632;51.962;16.116;2022-07-03T06:24:46;4.72;;;1.65;;
68647;SDS011;55632;51.962;16.116;2022-07-03T06:29:46;4.75;;;1.48;;
68647;SDS011;55632;51.962;16.116;2022-07-03T06:34:50;2.55;;;1.35;;
68647;SDS011;55632;51.962;16.116;2022-07-03T06:39:50;4.05;;;1.50;;
68647;SDS011;55632;51.962;16.116;2022-07-03T06:44:54;4.70;;;1.95;;
68647;SDS011;55632;51.962;16.116;2022-07-03T06:49:55;1.42;;;1.30;;
68647;SDS011;55632;51.962;16.116;2022-07-03T06:54:56;2.13;;;1.30;;
68647;SDS011;55632;51.962;16.116;2022-07-03T06:59:56;2.35;;;1.30;;
68647;SDS011;55632;51.962;16.116;2022-07-03T07:04:57;4.00;;;1.13;;
68647;SDS011;55632;51.962;16.116;2022-07-03T07:10:04;2.45;;;1.52;;
68647;SDS011;55632;51.962;16.116;2022-07-03T07:15:07;3.83;;;1.13;;
68647;SDS011;55632;51.962;16.116;2022-07-03T07:20:12;5.28;;;1.30;;
68647;SDS011;55632;51.962;16.116;2022-07-03T07:25:13;1.58;;;1.20;;
68647;SDS011;55632;51.962;16.116;2022-07-03T07:30:14;3.83;;;1.38;;
68647;SDS011;55632;51.962;16.116;2022-07-03T07:35:17;2.63;;;1.30;;
68647;SDS011;55632;51.962;16.116;2022-07-03T07:40:18;3.80;;;1.10;;
68647;SDS011;55632;51.962;16.116;2022-07-03T07:45:19;3.35;;;1.35;;
68647;SDS011;55632;51.962;16.116;2022-07-03T07:50:20;1.33;;;1.17;;
68647;SDS011;55632;51.962;16.116;2022-07-03T07:55:21;2.17;;;1.35;;
68647;SDS011;55632;51.962;16.116;2022-07-03T08:00:25;4.05;;;1.60;;
68647;SDS011;55632;51.962;16.116;2022-07-03T08:05:27;2.35;;;1.23;;
68647;SDS011;55632;51.962;16.116;2022-07-03T08:10:44;4.07;;;1.80;;
68647;SDS011;55632;51.962;16.116;2022-07-03T08:15:46;1.50;;;1.20;;
68647;SDS011;55632;51.962;16.116;2022-07-03T08:20:47;1.75;;;1.20;;
68647;SDS011;55632;51.962;16.116;2022-07-03T08:25:49;1.95;;;1.30;;
68647;SDS011;55632;51.962;16.116;2022-07-03T08:30:50;3.33;;;1.42;;
68647;SDS011;55632;51.962;16.116;2022-07-03T08:35:50;1.85;;;1.40;;
68647;SDS011;55632;51.962;16.116;2022-07-03T08:40:54;2.58;;;1.13;;
68647;SDS011;55632;51.962;16.116;2022-07-03T08:45:57;2.13;;;1.10;;
68647;SDS011;55632;51.962;16.116;2022-07-03T08:50:59;1.95;;;1.10;;
68647;SDS011;55632;51.962;16.116;2022-07-03T08:56:01;1.50;;;1.20;;
68647;SDS011;55632;51.962;16.116;2022-07-03T09:01:04;3.67;;;1.10;;
68647;SDS011;55632;51.962;16.116;2022-07-03T09:06:06;1.35;;;1.20;;
68647;SDS011;55632;51.962;16.116;2022-07-03T09:11:08;2.35;;;1.02;;
68647;SDS011;55632;51.962;16.116;2022-07-03T09:16:16;3.47;;;1.55;;
68647;SDS011;55632;51.962;16.116;2022-07-03T09:21:17;0.98;;;0.75;;
68647;SDS011;55632;51.962;16.116;2022-07-03T09:26:18;2.55;;;1.10;;
68647;SDS011;55632;51.962;16.116;2022-07-03T09:31:26;3.20;;;1.30;;
68647;SDS011;55632;51.962;16.116;2022-07-03T09:36:39;2.35;;;1.55;;
68647;SDS011;55632;51.962;16.116;2022-07-03T09:41:50;3.35;;;2.05;;
68647;SDS011;55632;51.962;16.116;2022-07-03T09:52:08;3.50;;;3.20;;
68647;SDS011;55632;51.962;16.116;2022-07-03T09:57:32;5.15;;;3.78;;
68647;SDS011;55632;51.962;16.116;2022-07-03T10:02:33;4.22;;;3.83;;
68647;SDS011;55632;51.962;16.116;2022-07-03T10:07:36;4.70;;;4.30;;
68647;SDS011;55632;51.962;16.116;2022-07-03T10:12:51;4.78;;;3.97;;
68647;SDS011;55632;51.962;16.116;2022-07-03T10:17:54;6.38;;;4.20;;
68647;SDS011;55632;51.962;16.116;2022-07-03T10:22:59;5.47;;;4.43;;
68647;SDS011;55632;51.962;16.116;2022-07-03T10:28:02;7.07;;;4.63;;
68647;SDS011;55632;51.962;16.116;2022-07-03T10:33:03;7.43;;;4.85;;
68647;SDS011;55632;51.962;16.116;2022-07-03T10:43:40;5.70;;;5.13;;
68647;SDS011;55632;51.962;16.116;2022-07-03T10:49:09;5.00;;;4.53;;
68647;SDS011;55632;51.962;16.116;2022-07-03T11:25:55;2.33;;;2.13;;
68647;SDS011;55632;51.962;16.116;2022-07-03T11:41:17;5.57;;;2.40;;
68647;SDS011;55632;51.962;16.116;2022-07-03T11:46:23;1.95;;;1.85;;
68647;SDS011;55632;51.962;16.116;2022-07-03T11:51:25;3.15;;;2.85;;
68647;SDS011;55632;51.962;16.116;2022-07-03T11:56:26;2.75;;;2.50;;
68647;SDS011;55632;51.962;16.116;2022-07-03T12:01:29;2.95;;;2.38;;
68647;SDS011;55632;51.962;16.116;2022-07-03T12:06:33;2.20;;;2.10;;
68647;SDS011;55632;51.962;16.116;2022-07-03T12:11:42;3.45;;;1.90;;
68647;SDS011;55632;51.962;16.116;2022-07-03T12:17:01;1.70;;;1.60;;
68647;SDS011;55632;51.962;16.116;2022-07-03T12:22:02;1.65;;;1.55;;
68647;SDS011;55632;51.962;16.116;2022-07-03T12:27:03;2.20;;;1.80;;
68647;SDS011;55632;51.962;16.116;2022-07-03T12:32:07;3.78;;;1.33;;
68647;SDS011;55632;51.962;16.116;2022-07-03T12:37:10;2.20;;;1.90;;
68647;SDS011;55632;51.962;16.116;2022-07-03T12:42:17;8.38;;;2.08;;
68647;SDS011;55632;51.962;16.116;2022-07-03T12:47:21;2.03;;;1.80;;
68647;SDS011;55632;51.962;16.116;2022-07-03T12:52:22;1.70;;;1.60;;
68647;SDS011;55632;51.962;16.116;2022-07-03T12:57:23;1.85;;;1.60;;
68647;SDS011;55632;51.962;16.116;2022-07-03T13:02:44;1.63;;;1.52;;
68647;SDS011;55632;51.962;16.116;2022-07-03T13:07:47;2.10;;;1.38;;
68647;SDS011;55632;51.962;16.116;2022-07-03T13:22:57;1.98;;;1.30;;
68647;SDS011;55632;51.962;16.116;2022-07-03T13:28:10;2.13;;;1.42;;
68647;SDS011;55632;51.962;16.116;2022-07-03T13:33:12;2.35;;;1.60;;
68647;SDS011;55632;51.962;16.116;2022-07-03T13:38:13;1.60;;;1.50;;
68647;SDS011;55632;51.962;16.116;2022-07-03T13:43:14;1.80;;;1.70;;
68647;SDS011;55632;51.962;16.116;2022-07-03T13:48:15;1.92;;;1.50;;
68647;SDS011;55632;51.962;16.116;2022-07-03T13:53:16;1.77;;;1.67;;
68647;SDS011;55632;51.962;16.116;2022-07-03T13:58:16;1.70;;;1.60;;
68647;SDS011;55632;51.962;16.116;2022-07-03T14:03:17;3.67;;;1.80;;
68647;SDS011;55632;51.962;16.116;2022-07-03T14:08:18;19.65;;;8.75;;
68647;SDS011;55632;51.962;16.116;2022-07-03T14:13:20;7.72;;;3.55;;
68647;SDS011;55632;51.962;16.116;2022-07-03T14:18:21;21.27;;;7.82;;
68647;SDS011;55632;51.962;16.116;2022-07-03T14:23:21;2.67;;;2.05;;
68647;SDS011;55632;51.962;16.116;2022-07-03T14:28:22;1.85;;;1.70;;
68647;SDS011;55632;51.962;16.116;2022-07-03T14:33:42;1.80;;;1.70;;
68647;SDS011;55632;51.962;16.116;2022-07-03T14:38:43;2.80;;;1.70;;
68647;SDS011;55632;51.962;16.116;2022-07-03T14:43:44;1.90;;;1.70;;
68647;SDS011;55632;51.962;16.116;2022-07-03T14:48:44;3.00;;;1.67;;
68647;SDS011;55632;51.962;16.116;2022-07-03T14:53:45;5.43;;;3.25;;
68647;SDS011;55632;51.962;16.116;2022-07-03T14:58:46;2.70;;;1.75;;
68647;SDS011;55632;51.962;16.116;2022-07-03T15:03:55;3.78;;;1.80;;
68647;SDS011;55632;51.962;16.116;2022-07-03T15:09:02;2.72;;;2.20;;
68647;SDS011;55632;51.962;16.116;2022-07-03T15:14:06;4.13;;;2.22;;
68647;SDS011;55632;51.962;16.116;2022-07-03T15:19:09;1.98;;;1.83;;
68647;SDS011;55632;51.962;16.116;2022-07-03T15:24:09;1.70;;;1.60;;
68647;SDS011;55632;51.962;16.116;2022-07-03T15:29:13;2.42;;;1.73;;
68647;SDS011;55632;51.962;16.116;2022-07-03T15:34:14;1.63;;;1.52;;
68647;SDS011;55632;51.962;16.116;2022-07-03T15:39:18;3.72;;;2.50;;
68647;SDS011;55632;51.962;16.116;2022-07-03T15:49:40;2.33;;;2.08;;
68647;SDS011;55632;51.962;16.116;2022-07-03T15:54:51;2.10;;;1.83;;
68647;SDS011;55632;51.962;16.116;2022-07-03T16:00:02;2.55;;;2.17;;
68647;SDS011;55632;51.962;16.116;2022-07-03T16:05:14;2.45;;;2.20;;
68647;SDS011;55632;51.962;16.116;2022-07-03T16:10:25;2.47;;;1.55;;
68647;SDS011;55632;51.962;16.116;2022-07-03T16:15:30;2.17;;;1.50;;
68647;SDS011;55632;51.962;16.116;2022-07-03T16:20:32;3.70;;;1.58;;
68647;SDS011;55632;51.962;16.116;2022-07-03T16:25:34;2.65;;;1.83;;
68647;SDS011;55632;51.962;16.116;2022-07-03T16:30:55;7.30;;;5.90;;
68647;SDS011;55632;51.962;16.116;2022-07-03T16:36:00;5.85;;;3.38;;
68647;SDS011;55632;51.962;16.116;2022-07-03T16:41:12;2.08;;;1.92;;
68647;SDS011;55632;51.962;16.116;2022-07-03T16:46:17;3.45;;;3.00;;
68647;SDS011;55632;51.962;16.116;2022-07-03T16:51:22;4.93;;;4.22;;
68647;SDS011;55632;51.962;16.116;2022-07-03T16:56:30;8.83;;;4.97;;
68647;SDS011;55632;51.962;16.116;2022-07-03T17:01:35;3.03;;;2.45;;
68647;SDS011;55632;51.962;16.116;2022-07-03T17:06:36;7.00;;;4.82;;
68647;SDS011;55632;51.962;16.116;2022-07-03T17:11:39;12.50;;;3.88;;
68647;SDS011;55632;51.962;16.116;2022-07-03T17:16:51;4.15;;;3.33;;
68647;SDS011;55632;51.962;16.116;2022-07-03T17:21:57;8.98;;;3.55;;
68647;SDS011;55632;51.962;16.116;2022-07-03T17:26:59;4.18;;;2.47;;
68647;SDS011;55632;51.962;16.116;2022-07-03T17:32:03;5.63;;;3.65;;
68647;SDS011;55632;51.962;16.116;2022-07-03T17:37:07;2.78;;;2.17;;
68647;SDS011;55632;51.962;16.116;2022-07-03T17:42:09;3.38;;;2.40;;
68647;SDS011;55632;51.962;16.116;2022-07-03T17:47:14;4.40;;;2.50;;
68647;SDS011;55632;51.962;16.116;2022-07-03T17:52:17;3.78;;;2.10;;
68647;SDS011;55632;51.962;16.116;2022-07-03T17:57:19;3.92;;;2.00;;
68647;SDS011;55632;51.962;16.116;2022-07-03T18:02:40;2.40;;;2.20;;
68647;SDS011;55632;51.962;16.116;2022-07-03T18:18:39;3.72;;;2.28;;
68647;SDS011;55632;51.962;16.116;2022-07-03T18:23:52;2.90;;;2.70;;
68647;SDS011;55632;51.962;16.116;2022-07-03T18:28:54;3.22;;;2.63;;
68647;SDS011;55632;51.962;16.116;2022-07-03T18:33:57;3.78;;;3.22;;
68647;SDS011;55632;51.962;16.116;2022-07-03T18:39:00;2.35;;;2.15;;
68647;SDS011;55632;51.962;16.116;2022-07-03T18:44:04;3.63;;;2.58;;
68647;SDS011;55632;51.962;16.116;2022-07-03T18:49:06;4.38;;;2.53;;
68647;SDS011;55632;51.962;16.116;2022-07-03T18:59:27;5.50;;;3.85;;
68647;SDS011;55632;51.962;16.116;2022-07-03T19:04:50;4.95;;;3.45;;
68647;SDS011;55632;51.962;16.116;2022-07-03T19:10:05;3.47;;;2.47;;
68647;SDS011;55632;51.962;16.116;2022-07-03T19:15:15;4.67;;;2.50;;
68647;SDS011;55632;51.962;16.116;2022-07-03T19:20:31;2.85;;;2.50;;
68647;SDS011;55632;51.962;16.116;2022-07-03T19:25:32;4.30;;;2.30;;
68647;SDS011;55632;51.962;16.116;2022-07-03T19:30:36;2.05;;;1.90;;
68647;SDS011;55632;51.962;16.116;2022-07-03T19:35:37;1.95;;;1.80;;
68647;SDS011;55632;51.962;16.116;2022-07-03T19:40:38;4.88;;;2.50;;
68647;SDS011;55632;51.962;16.116;2022-07-03T19:45:45;6.13;;;2.80;;
68647;SDS011;55632;51.962;16.116;2022-07-03T19:50:49;4.35;;;2.40;;
68647;SDS011;55632;51.962;16.116;2022-07-03T19:55:50;3.55;;;2.53;;
68647;SDS011;55632;51.962;16.116;2022-07-03T20:00:51;3.65;;;2.20;;
68647;SDS011;55632;51.962;16.116;2022-07-03T20:05:52;4.55;;;2.97;;
68647;SDS011;55632;51.962;16.116;2022-07-03T20:10:53;7.45;;;4.28;;
68647;SDS011;55632;51.962;16.116;2022-07-03T20:15:54;3.90;;;2.90;;
68647;SDS011;55632;51.962;16.116;2022-07-03T20:20:55;2.65;;;2.45;;
68647;SDS011;55632;51.962;16.116;2022-07-03T20:25:56;3.42;;;2.10;;
68647;SDS011;55632;51.962;16.116;2022-07-03T20:31:00;3.72;;;2.40;;
68647;SDS011;55632;51.962;16.116;2022-07-03T20:36:01;3.67;;;2.30;;
68647;SDS011;55632;51.962;16.116;2022-07-03T20:41:06;4.15;;;2.47;;
68647;SDS011;55632;51.962;16.116;2022-07-03T20:46:09;9.93;;;2.67;;
68647;SDS011;55632;51.962;16.116;2022-07-03T20:51:10;5.72;;;2.30;;
68647;SDS011;55632;51.962;16.116;2022-07-03T20:56:14;6.18;;;2.40;;
68647;SDS011;55632;51.962;16.116;2022-07-03T21:01:18;5.10;;;2.92;;
68647;SDS011;55632;51.962;16.116;2022-07-03T21:06:19;2.97;;;2.33;;
68647;SDS011;55632;51.962;16.116;2022-07-03T21:11:21;4.22;;;2.70;;
68647;SDS011;55632;51.962;16.116;2022-07-03T21:16:42;4.32;;;2.50;;
68647;SDS011;55632;51.962;16.116;2022-07-03T21:21:47;7.28;;;3.15;;
68647;SDS011;55632;51.962;16.116;2022-07-03T21:26:50;4.43;;;2.65;;
68647;SDS011;55632;51.962;16.116;2022-07-03T21:31:52;2.50;;;2.30;;
68647;SDS011;55632;51.962;16.116;2022-07-03T21:36:57;7.63;;;2.55;;
68647;SDS011;55632;51.962;16.116;2022-07-03T21:41:58;2.70;;;2.28;;
68647;SDS011;55632;51.962;16.116;2022-07-03T21:47:02;3.17;;;1.90;;
68647;SDS011;55632;51.962;16.116;2022-07-03T21:52:06;2.67;;;2.33;;
68647;SDS011;55632;51.962;16.116;2022-07-03T21:57:07;6.28;;;2.53;;
68647;SDS011;55632;51.962;16.116;2022-07-03T22:02:08;3.67;;;2.67;;
68647;SDS011;55632;51.962;16.116;2022-07-03T22:07:09;2.80;;;2.35;;
68647;SDS011;55632;51.962;16.116;2022-07-03T22:12:13;2.95;;;2.22;;
68647;SDS011;55632;51.962;16.116;2022-07-03T22:17:34;3.08;;;2.30;;
68647;SDS011;55632;51.962;16.116;2022-07-03T22:22:36;2.92;;;2.60;;
68647;SDS011;55632;51.962;16.116;2022-07-03T22:27:38;4.22;;;2.60;;
68647;SDS011;55632;51.962;16.116;2022-07-03T22:32:42;4.22;;;2.90;;
68647;SDS011;55632;51.962;16.116;2022-07-03T22:37:47;3.45;;;2.50;;
68647;SDS011;55632;51.962;16.116;2022-07-03T22:42:52;3.85;;;2.45;;
68647;SDS011;55632;51.962;16.116;2022-07-03T22:47:58;5.13;;;2.70;;
68647;SDS011;55632;51.962;16.116;2022-07-03T22:53:01;4.85;;;2.70;;
68647;SDS011;55632;51.962;16.116;2022-07-03T22:58:01;4.57;;;2.50;;
68647;SDS011;55632;51.962;16.116;2022-07-03T23:03:02;3.78;;;2.65;;
68647;SDS011;55632;51.962;16.116;2022-07-03T23:08:03;3.90;;;2.80;;
68647;SDS011;55632;51.962;16.116;2022-07-03T23:13:05;5.00;;;2.80;;
68647;SDS011;55632;51.962;16.116;2022-07-03T23:18:21;4.13;;;2.88;;
68647;SDS011;55632;51.962;16.116;2022-07-03T23:23:21;4.85;;;3.40;;
68647;SDS011;55632;51.962;16.116;2022-07-03T23:28:22;3.25;;;2.78;;
68647;SDS011;55632;51.962;16.116;2022-07-03T23:33:26;3.70;;;2.42;;
68647;SDS011;55632;51.962;16.116;2022-07-03T23:38:27;3.70;;;2.55;;
68647;SDS011;55632;51.962;16.116;2022-07-03T23:43:30;2.85;;;2.40;;
68647;SDS011;55632;51.962;16.116;2022-07-03T23:48:38;7.28;;;2.72;;
68647;SDS011;55632;51.962;16.116;2022-07-03T23:54:00;7.60;;;3.40;;
68647;SDS011;55632;51.962;16.116;2022-07-03T23:59:02;2.50;;;2.30;;
